sensor_id;sensor_type;location;lat;lon;timestamp;P1;durP1;ratioP1;P2;durP2;ratioP2
14209;SDS011;7188;56.070;12.698;2022-12-18T15:57:08;7.17;;;4.60;;
14209;SDS011;7188;56.070;12.698;2022-12-18T16:13:29;8.83;;;4.80;;
14209;SDS011;7188;56.070;12.698;2022-12-18T16:43:25;10.87;;;5.63;;
14209;SDS011;7188;56.070;12.698;2022-12-18T16:45:51;12.33;;;7.83;;
14209;SDS011;7188;56.070;12.698;2022-12-18T16:48:16;12.47;;;7.10;;
14209;SDS011;7188;56.070;12.698;2022-12-18T16:50:42;15.10;;;7.97;;
14209;SDS011;7188;56.070;12.698;2022-12-18T16:53:08;11.73;;;7.57;;
14209;SDS011;7188;56.070;12.698;2022-12-18T16:55:33;15.13;;;7.13;;
14209;SDS011;7188;56.070;12.698;2022-12-18T16:57:59;12.57;;;6.83;;
14209;SDS011;7188;56.070;12.698;2022-12-18T17:00:24;13.07;;;7.80;;
14209;SDS011;7188;56.070;12.698;2022-12-18T17:02:50;16.10;;;8.93;;
14209;SDS011;7188;56.070;12.698;2022-12-18T17:05:15;10.67;;;7.00;;
14209;SDS011;7188;56.070;12.698;2022-12-18T17:07:41;12.47;;;8.10;;
14209;SDS011;7188;56.070;12.698;2022-12-18T17:10:07;13.43;;;7.63;;
14209;SDS011;7188;56.070;12.698;2022-12-18T17:12:33;12.00;;;7.47;;
14209;SDS011;7188;56.070;12.698;2022-12-18T17:14:58;12.57;;;7.77;;
14209;SDS011;7188;56.070;12.698;2022-12-18T17:17:24;15.30;;;7.87;;
14209;SDS011;7188;56.070;12.698;2022-12-18T17:19:50;12.30;;;7.23;;
14209;SDS011;7188;56.070;12.698;2022-12-18T17:22:16;13.50;;;8.10;;
14209;SDS011;7188;56.070;12.698;2022-12-18T17:24:42;15.97;;;8.83;;
14209;SDS011;7188;56.070;12.698;2022-12-18T17:27:08;13.53;;;8.27;;
14209;SDS011;7188;56.070;12.698;2022-12-18T17:29:33;13.37;;;7.37;;
14209;SDS011;7188;56.070;12.698;2022-12-18T17:31:59;12.90;;;7.77;;
14209;SDS011;7188;56.070;12.698;2022-12-18T17:34:25;13.80;;;8.07;;
14209;SDS011;7188;56.070;12.698;2022-12-18T17:36:50;14.93;;;8.40;;
14209;SDS011;7188;56.070;12.698;2022-12-18T17:39:17;15.70;;;7.80;;
14209;SDS011;7188;56.070;12.698;2022-12-18T17:41:44;13.67;;;7.67;;
14209;SDS011;7188;56.070;12.698;2022-12-18T17:44:10;16.33;;;7.80;;
14209;SDS011;7188;56.070;12.698;2022-12-18T17:46:35;10.77;;;7.17;;
14209;SDS011;7188;56.070;12.698;2022-12-18T17:49:01;16.73;;;8.70;;
14209;SDS011;7188;56.070;12.698;2022-12-18T17:51:27;13.60;;;8.03;;
14209;SDS011;7188;56.070;12.698;2022-12-18T17:53:54;13.43;;;8.03;;
14209;SDS011;7188;56.070;12.698;2022-12-18T17:56:20;11.57;;;7.70;;
14209;SDS011;7188;56.070;12.698;2022-12-18T17:58:48;15.83;;;8.83;;
14209;SDS011;7188;56.070;12.698;2022-12-18T18:01:15;17.20;;;9.50;;
14209;SDS011;7188;56.070;12.698;2022-12-18T18:03:42;16.30;;;8.37;;
14209;SDS011;7188;56.070;12.698;2022-12-18T18:06:08;12.47;;;7.00;;
14209;SDS011;7188;56.070;12.698;2022-12-18T18:08:34;14.33;;;7.73;;
14209;SDS011;7188;56.070;12.698;2022-12-18T18:11:07;14.70;;;7.93;;
14209;SDS011;7188;56.070;12.698;2022-12-18T18:13:58;13.83;;;8.33;;
14209;SDS011;7188;56.070;12.698;2022-12-18T18:16:34;15.43;;;7.90;;
14209;SDS011;7188;56.070;12.698;2022-12-18T18:19:04;13.13;;;7.17;;
14209;SDS011;7188;56.070;12.698;2022-12-18T18:21:32;16.80;;;8.77;;
14209;SDS011;7188;56.070;12.698;2022-12-18T18:23:59;17.47;;;8.07;;
14209;SDS011;7188;56.070;12.698;2022-12-18T18:26:26;14.17;;;8.33;;
14209;SDS011;7188;56.070;12.698;2022-12-18T18:28:53;16.90;;;8.87;;
14209;SDS011;7188;56.070;12.698;2022-12-18T18:31:19;20.80;;;8.43;;
14209;SDS011;7188;56.070;12.698;2022-12-18T18:33:44;11.53;;;7.30;;
14209;SDS011;7188;56.070;12.698;2022-12-18T18:36:10;14.40;;;7.93;;
14209;SDS011;7188;56.070;12.698;2022-12-18T18:38:39;12.43;;;7.53;;
14209;SDS011;7188;56.070;12.698;2022-12-18T18:41:04;18.90;;;8.33;;
14209;SDS011;7188;56.070;12.698;2022-12-18T18:43:30;15.63;;;8.40;;
14209;SDS011;7188;56.070;12.698;2022-12-18T18:45:57;15.07;;;7.73;;
14209;SDS011;7188;56.070;12.698;2022-12-18T18:48:24;17.37;;;8.70;;
14209;SDS011;7188;56.070;12.698;2022-12-18T18:53:26;20.13;;;9.73;;
14209;SDS011;7188;56.070;12.698;2022-12-18T18:55:52;17.10;;;9.30;;
14209;SDS011;7188;56.070;12.698;2022-12-18T18:58:21;22.07;;;9.60;;
14209;SDS011;7188;56.070;12.698;2022-12-18T19:00:53;19.77;;;9.27;;
14209;SDS011;7188;56.070;12.698;2022-12-18T19:03:26;18.40;;;8.90;;
14209;SDS011;7188;56.070;12.698;2022-12-18T19:05:56;21.70;;;9.43;;
14209;SDS011;7188;56.070;12.698;2022-12-18T19:08:24;22.10;;;10.00;;
14209;SDS011;7188;56.070;12.698;2022-12-18T19:10:55;23.07;;;11.57;;
14209;SDS011;7188;56.070;12.698;2022-12-18T19:13:24;22.23;;;10.07;;
14209;SDS011;7188;56.070;12.698;2022-12-18T19:29:33;21.97;;;10.70;;
14209;SDS011;7188;56.070;12.698;2022-12-18T19:38:44;17.20;;;9.80;;
14209;SDS011;7188;56.070;12.698;2022-12-18T19:41:10;22.80;;;10.77;;
14209;SDS011;7188;56.070;12.698;2022-12-18T20:15:12;28.97;;;14.27;;
14209;SDS011;7188;56.070;12.698;2022-12-18T20:21:00;25.13;;;12.43;;
14209;SDS011;7188;56.070;12.698;2022-12-18T20:23:26;28.70;;;13.20;;
14209;SDS011;7188;56.070;12.698;2022-12-18T20:25:52;25.17;;;13.17;;
14209;SDS011;7188;56.070;12.698;2022-12-18T20:28:19;26.13;;;11.67;;
14209;SDS011;7188;56.070;12.698;2022-12-18T20:37:07;23.87;;;12.30;;
14209;SDS011;7188;56.070;12.698;2022-12-18T20:39:33;28.53;;;13.73;;
14209;SDS011;7188;56.070;12.698;2022-12-18T20:41:58;33.17;;;15.53;;
14209;SDS011;7188;56.070;12.698;2022-12-18T20:44:24;32.67;;;15.60;;
14209;SDS011;7188;56.070;12.698;2022-12-18T21:41:06;31.10;;;16.73;;
14209;SDS011;7188;56.070;12.698;2022-12-18T21:43:32;31.33;;;16.00;;
14209;SDS011;7188;56.070;12.698;2022-12-18T21:46:16;30.73;;;15.20;;
14209;SDS011;7188;56.070;12.698;2022-12-18T21:48:42;27.67;;;14.57;;
14209;SDS011;7188;56.070;12.698;2022-12-18T21:51:08;34.07;;;15.77;;
14209;SDS011;7188;56.070;12.698;2022-12-18T21:53:34;32.33;;;16.57;;
14209;SDS011;7188;56.070;12.698;2022-12-18T21:56:00;36.37;;;17.47;;
14209;SDS011;7188;56.070;12.698;2022-12-18T21:58:25;36.43;;;17.73;;
14209;SDS011;7188;56.070;12.698;2022-12-18T22:00:51;36.60;;;19.23;;
14209;SDS011;7188;56.070;12.698;2022-12-18T22:03:17;38.23;;;17.90;;
14209;SDS011;7188;56.070;12.698;2022-12-18T22:05:43;36.93;;;18.10;;
14209;SDS011;7188;56.070;12.698;2022-12-18T22:08:09;39.70;;;17.87;;
14209;SDS011;7188;56.070;12.698;2022-12-18T22:10:35;33.00;;;17.33;;
14209;SDS011;7188;56.070;12.698;2022-12-18T22:13:01;41.27;;;18.97;;
14209;SDS011;7188;56.070;12.698;2022-12-18T22:15:27;33.73;;;17.67;;
14209;SDS011;7188;56.070;12.698;2022-12-18T22:17:53;38.43;;;17.43;;
14209;SDS011;7188;56.070;12.698;2022-12-18T22:20:19;35.47;;;18.43;;
14209;SDS011;7188;56.070;12.698;2022-12-18T22:22:44;38.53;;;17.47;;
14209;SDS011;7188;56.070;12.698;2022-12-18T22:25:10;33.83;;;16.53;;
14209;SDS011;7188;56.070;12.698;2022-12-18T22:27:36;35.20;;;18.43;;
14209;SDS011;7188;56.070;12.698;2022-12-18T22:30:02;39.43;;;18.83;;
14209;SDS011;7188;56.070;12.698;2022-12-18T22:32:29;40.80;;;18.80;;
14209;SDS011;7188;56.070;12.698;2022-12-18T22:35:01;34.00;;;17.33;;
14209;SDS011;7188;56.070;12.698;2022-12-18T22:37:28;35.87;;;18.53;;
14209;SDS011;7188;56.070;12.698;2022-12-18T22:39:53;32.50;;;18.37;;
14209;SDS011;7188;56.070;12.698;2022-12-18T22:42:19;38.23;;;17.83;;
14209;SDS011;7188;56.070;12.698;2022-12-18T22:44:45;34.20;;;18.27;;
14209;SDS011;7188;56.070;12.698;2022-12-18T22:47:13;38.77;;;18.53;;
14209;SDS011;7188;56.070;12.698;2022-12-18T22:49:39;36.47;;;19.23;;
14209;SDS011;7188;56.070;12.698;2022-12-18T22:52:05;37.60;;;18.63;;
14209;SDS011;7188;56.070;12.698;2022-12-18T22:54:33;36.47;;;18.37;;
14209;SDS011;7188;56.070;12.698;2022-12-18T22:57:00;35.47;;;18.53;;
14209;SDS011;7188;56.070;12.698;2022-12-18T22:59:25;31.77;;;18.17;;
14209;SDS011;7188;56.070;12.698;2022-12-18T23:01:51;30.37;;;16.50;;
14209;SDS011;7188;56.070;12.698;2022-12-18T23:04:17;34.43;;;18.03;;
14209;SDS011;7188;56.070;12.698;2022-12-18T23:06:43;33.37;;;17.00;;
14209;SDS011;7188;56.070;12.698;2022-12-18T23:09:16;30.97;;;16.40;;
14209;SDS011;7188;56.070;12.698;2022-12-18T23:11:43;31.97;;;17.97;;
14209;SDS011;7188;56.070;12.698;2022-12-18T23:14:10;30.27;;;14.83;;
14209;SDS011;7188;56.070;12.698;2022-12-18T23:16:36;29.30;;;16.67;;
14209;SDS011;7188;56.070;12.698;2022-12-18T23:19:02;33.03;;;17.00;;
14209;SDS011;7188;56.070;12.698;2022-12-18T23:21:28;32.47;;;16.03;;
14209;SDS011;7188;56.070;12.698;2022-12-18T23:23:54;34.80;;;16.73;;
14209;SDS011;7188;56.070;12.698;2022-12-18T23:26:21;30.10;;;15.70;;
14209;SDS011;7188;56.070;12.698;2022-12-18T23:28:48;28.30;;;16.70;;
14209;SDS011;7188;56.070;12.698;2022-12-18T23:31:16;28.93;;;14.60;;
14209;SDS011;7188;56.070;12.698;2022-12-18T23:33:50;33.30;;;16.70;;
14209;SDS011;7188;56.070;12.698;2022-12-18T23:36:17;30.10;;;16.07;;
14209;SDS011;7188;56.070;12.698;2022-12-18T23:38:50;29.70;;;15.27;;
14209;SDS011;7188;56.070;12.698;2022-12-18T23:41:18;32.57;;;16.00;;
14209;SDS011;7188;56.070;12.698;2022-12-18T23:43:45;29.33;;;14.83;;
14209;SDS011;7188;56.070;12.698;2022-12-18T23:46:11;25.40;;;14.33;;
14209;SDS011;7188;56.070;12.698;2022-12-18T23:48:41;26.90;;;15.13;;
14209;SDS011;7188;56.070;12.698;2022-12-18T23:51:07;32.80;;;16.77;;
14209;SDS011;7188;56.070;12.698;2022-12-18T23:53:34;28.97;;;15.20;;
14209;SDS011;7188;56.070;12.698;2022-12-18T23:56:01;32.70;;;15.90;;
14209;SDS011;7188;56.070;12.698;2022-12-18T23:58:31;28.73;;;15.77;;
